Time;durP1;ratioP1;P1;durP2;ratioP2;P2;SDS_P1;SDS_P2;PMS_P1;PMS_P2;Temp;Humidity;BMP_temperature;BMP_pressure;BME280_temperature;BME280_humidity;BME280_pressure;Samples;Min_cycle;Max_cycle;Signal;HPM_P1;HPM_P2
2023/03/17 00:02:08;;;;;;;;;;;;;;;1.61;100.00;95575.97;10399820;28;2103;-66
2023/03/17 00:07:14;;;;;;;;;;;;;;;1.55;100.00;95576.84;10393818;28;2545;-65
2023/03/17 00:12:18;;;;;;;;;;;;;;;1.55;100.00;95576.84;10404915;28;2495;-66
2023/03/17 00:17:22;;;;;;;;;;;;;;;1.46;100.00;95580.81;10397983;28;2028;-70
2023/03/17 00:22:25;;;;;;;;;;;;;;;1.40;100.00;95568.47;10403969;28;2542;-70
2023/03/17 00:27:28;;;;;;;;;;;;;;;1.37;100.00;95558.31;10401038;28;2504;-67
2023/03/17 00:32:30;;;;;;;;;;;;;;;1.33;100.00;95559.78;10392270;28;2910;-67
2023/03/17 00:37:33;;;;;;;;;;;;;;;1.32;100.00;95548.38;10394301;28;2439;-67
2023/03/17 00:42:37;;;;;;;;;;;;;;;1.28;100.00;95546.41;10400386;28;2478;-66
2023/03/17 00:47:40;;;;;;;;;;;;;;;1.21;100.00;95556.25;10401747;28;2469;-67
2023/03/17 00:52:43;;;;;;;;;;;;;;;1.22;100.00;95545.44;10395484;28;2483;-67
2023/03/17 00:57:46;;;;;;;;;;;;;;;1.18;100.00;95538.16;10398850;28;1940;-66
2023/03/17 01:02:48;;;;;;;;;;;;;;;1.10;100.00;95541.91;10396584;28;2119;-68
2023/03/17 01:07:52;;;;;;;;;;;;;;;1.01;100.00;95540.56;10399952;28;2465;-67
2023/03/17 01:12:56;;;;;;;;;;;;;;;0.96;100.00;95525.38;10400157;28;2495;-67
2023/03/17 01:17:59;;;;;;;;;;;;;;;0.93;100.00;95517.03;10400669;28;2454;-67
2023/03/17 01:23:01;;;;;;;;;;;;;;;1.04;100.00;95511.03;10424792;28;2485;-66
2023/03/17 01:28:04;;;;;;;;;;;;;;;0.93;100.00;95501.97;10392414;28;2502;-66
2023/03/17 01:33:07;;;;;;;;;;;;;;;0.81;100.00;95501.88;10387938;28;2511;-66
2023/03/17 01:38:10;;;;;;;;;;;;;;;0.77;100.00;95498.06;10394533;28;2438;-72
2023/03/17 01:43:14;;;;;;;;;;;;;;;0.76;100.00;95495.63;10399201;28;2580;-67
2023/03/17 01:48:18;;;;;;;;;;;;;;;0.78;100.00;95489.09;10390661;28;2468;-65
2023/03/17 01:53:22;;;;;;;;;;;;;;;0.71;100.00;95475.13;10397607;28;1996;-67
2023/03/17 01:58:24;;;;;;;;;;;;;;;0.74;100.00;95471.22;10392152;28;2458;-66
2023/03/17 02:03:28;;;;;;;;;;;;;;;0.71;100.00;95472.50;10395570;28;2479;-65
2023/03/17 02:08:30;;;;;;;;;;;;;;;0.70;100.00;95472.69;10397925;28;2494;-66
2023/03/17 02:13:34;;;;;;;;;;;;;;;0.66;100.00;95458.28;10394460;28;2502;-67
2023/03/17 02:18:37;;;;;;;;;;;;;;;0.61;100.00;95453.66;10397149;28;2440;-68
2023/03/17 02:23:41;;;;;;;;;;;;;;;0.59;100.00;95439.03;10385547;28;2463;-64
2023/03/17 02:28:44;;;;;;;;;;;;;;;0.60;100.00;95440.66;10399387;28;2499;-68
2023/03/17 02:33:47;;;;;;;;;;;;;;;0.64;100.00;95429.44;10399093;28;2460;-66
2023/03/17 02:38:51;;;;;;;;;;;;;;;0.54;100.00;95429.91;10427967;28;2513;-66
2023/03/17 02:43:53;;;;;;;;;;;;;;;0.60;100.00;95416.84;10403255;28;2007;-66
2023/03/17 02:48:56;;;;;;;;;;;;;;;0.56;100.00;95423.59;10402659;28;1979;-69
2023/03/17 02:53:58;;;;;;;;;;;;;;;0.64;100.00;95413.56;10404333;28;2476;-75
2023/03/17 02:59:01;;;;;;;;;;;;;;;0.69;100.00;95415.50;10407140;28;2108;-66
2023/03/17 03:04:03;;;;;;;;;;;;;;;0.76;100.00;95408.31;10401786;28;2500;-67
2023/03/17 03:09:06;;;;;;;;;;;;;;;0.91;100.00;95410.59;10396945;28;2435;-66
2023/03/17 03:14:09;;;;;;;;;;;;;;;0.92;100.00;95410.38;10403431;28;2030;-66
2023/03/17 03:19:12;;;;;;;;;;;;;;;0.97;100.00;95418.47;10393801;28;2072;-66
2023/03/17 03:24:14;;;;;;;;;;;;;;;1.02;100.00;95407.22;10396708;28;2549;-66
2023/03/17 03:29:17;;;;;;;;;;;;;;;1.02;100.00;95408.03;10403566;28;2053;-65
2023/03/17 03:34:20;;;;;;;;;;;;;;;1.09;100.00;95410.59;10399414;28;2497;-66
2023/03/17 03:39:23;;;;;;;;;;;;;;;1.17;100.00;95420.06;10403270;28;2475;-66
2023/03/17 03:44:26;;;;;;;;;;;;;;;1.07;100.00;95413.44;10434317;28;2502;-66
2023/03/17 03:49:28;;;;;;;;;;;;;;;1.14;100.00;95408.06;10400979;28;2480;-66
2023/03/17 03:54:31;;;;;;;;;;;;;;;1.17;100.00;95410.28;10398579;28;2492;-66
2023/03/17 03:59:34;;;;;;;;;;;;;;;1.20;100.00;95403.72;10397991;28;2474;-65
2023/03/17 04:04:36;;;;;;;;;;;;;;;1.28;100.00;95392.81;10396322;28;2477;-66
2023/03/17 04:09:39;;;;;;;;;;;;;;;1.27;100.00;95396.47;10398633;28;2444;-66
2023/03/17 04:14:43;;;;;;;;;;;;;;;1.29;100.00;95397.09;10401893;28;2527;-65
2023/03/17 04:19:46;;;;;;;;;;;;;;;1.37;100.00;95396.75;10400310;28;2426;-67
2023/03/17 04:24:49;;;;;;;;;;;;;;;1.40;100.00;95384.91;10392328;28;2440;-65
2023/03/17 04:29:52;;;;;;;;;;;;;;;1.20;100.00;95391.28;10401690;28;2454;-66
2023/03/17 04:34:55;;;;;;;;;;;;;;;1.13;100.00;95392.41;10416912;28;1915;-66
2023/03/17 04:39:58;;;;;;;;;;;;;;;1.02;100.00;95394.78;10413843;28;2485;-67
2023/03/17 04:45:01;;;;;;;;;;;;;;;1.02;100.00;95405.38;10402702;28;2467;-66
2023/03/17 04:50:03;;;;;;;;;;;;;;;0.94;100.00;95399.56;10399447;28;2543;-67
2023/03/17 04:55:07;;;;;;;;;;;;;;;0.85;100.00;95396.41;10399256;28;2404;-66
2023/03/17 05:00:11;;;;;;;;;;;;;;;0.84;100.00;95402.75;10395895;28;2474;-66
2023/03/17 05:05:13;;;;;;;;;;;;;;;0.63;100.00;95400.53;10393056;28;2553;-65
2023/03/17 05:10:17;;;;;;;;;;;;;;;0.67;100.00;95396.41;10388651;28;2447;-66
2023/03/17 05:15:20;;;;;;;;;;;;;;;0.54;100.00;95407.94;10392668;28;1946;-68
2023/03/17 05:20:23;;;;;;;;;;;;;;;0.43;100.00;95406.03;10389760;28;1990;-66
2023/03/17 05:25:26;;;;;;;;;;;;;;;0.35;100.00;95398.38;10390578;28;2120;-66
2023/03/17 05:30:32;;;;;;;;;;;;;;;0.44;100.00;95392.56;10396967;28;2483;-66
2023/03/17 05:35:35;;;;;;;;;;;;;;;0.54;100.00;95408.75;10393410;28;2120;-66
2023/03/17 05:40:38;;;;;;;;;;;;;;;0.61;100.00;95397.31;10401170;28;2511;-66
2023/03/17 05:45:42;;;;;;;;;;;;;;;0.71;100.00;95393.13;10392554;28;2006;-66
2023/03/17 05:50:46;;;;;;;;;;;;;;;0.91;100.00;95387.59;10400414;28;1970;-66
2023/03/17 05:55:51;;;;;;;;;;;;;;;1.08;100.00;95385.13;10397529;28;2000;-66
2023/03/17 06:00:53;;;;;;;;;;;;;;;1.18;100.00;95385.41;10391618;28;2533;-68
2023/03/17 06:05:56;;;;;;;;;;;;;;;1.52;100.00;95385.75;10399962;28;2431;-66
2023/03/17 06:10:59;;;;;;;;;;;;;;;1.69;100.00;95383.25;10403814;28;2491;-67
2023/03/17 06:16:03;;;;;;;;;;;;;;;1.88;100.00;95382.13;10399699;28;2494;-67
2023/03/17 06:21:06;;;;;;;;;;;;;;;2.02;100.00;95383.53;10405645;28;2502;-69
2023/03/17 06:26:09;;;;;;;;;;;;;;;2.06;100.00;95379.41;10404925;28;2040;-67
2023/03/17 06:31:12;;;;;;;;;;;;;;;2.04;100.00;95370.88;10417027;28;2424;-72
2023/03/17 06:36:16;;;;;;;;;;;;;;;1.82;100.00;95367.16;10414363;28;2002;-65
2023/03/17 06:41:29;;;;;;;;;;;;;;;1.85;100.00;95372.00;10418984;28;2459;-67
2023/03/17 06:46:31;;;;;;;;;;;;;;;1.96;100.00;95367.75;10420723;28;2559;-67
2023/03/17 06:51:36;;;;;;;;;;;;;;;2.22;100.00;95382.38;10419614;28;2498;-66
2023/03/17 06:56:38;;;;;;;;;;;;;;;2.53;100.00;95379.38;10425827;28;2477;-66
2023/03/17 07:01:40;;;;;;;;;;;;;;;2.45;100.00;95366.47;10418447;28;2508;-65
2023/03/17 07:06:43;;;;;;;;;;;;;;;2.75;100.00;95376.13;10403751;28;2424;-73
2023/03/17 07:11:46;;;;;;;;;;;;;;;2.88;100.00;95371.38;10400980;28;2451;-67
2023/03/17 07:16:48;;;;;;;;;;;;;;;3.11;100.00;95378.44;10403194;28;2039;-67
2023/03/17 07:22:05;;;;;;;;;;;;;;;3.28;100.00;95375.03;10394150;28;2505;-71
2023/03/17 07:27:10;;;;;;;;;;;;;;;3.50;100.00;95373.34;10401454;28;2436;-69
2023/03/17 07:32:14;;;;;;;;;;;;;;;3.70;100.00;95363.06;10401273;28;2286;-70
2023/03/17 07:37:16;;;;;;;;;;;;;;;3.98;100.00;95369.34;10395350;28;2056;-66
2023/03/17 07:42:19;;;;;;;;;;;;;;;4.22;100.00;95369.97;10405246;28;2497;-65
2023/03/17 07:47:21;;;;;;;;;;;;;;;4.64;100.00;95372.97;10436342;28;2555;-65
2023/03/17 07:52:24;;;;;;;;;;;;;;;4.89;100.00;95375.97;10397276;28;2043;-68
2023/03/17 07:57:27;;;;;;;;;;;;;;;5.08;100.00;95371.13;10404171;28;2500;-66
2023/03/17 08:02:30;;;;;;;;;;;;;;;5.37;100.00;95369.06;10408249;28;2561;-65
2023/03/17 08:07:33;;;;;;;;;;;;;;;5.52;100.00;95367.59;10390399;28;2456;-63
2023/03/17 08:12:35;;;;;;;;;;;;;;;5.68;100.00;95367.50;10390858;28;2480;-67
2023/03/17 08:17:47;;;;;;;;;;;;;;;6.07;100.00;95374.56;10393304;28;2481;-66
2023/03/17 08:22:51;;;;;;;;;;;;;;;6.27;100.00;95381.91;10396852;28;2202;-66
2023/03/17 08:27:54;;;;;;;;;;;;;;;6.77;100.00;95373.41;10398743;28;2206;-67
2023/03/17 08:32:57;;;;;;;;;;;;;;;7.02;100.00;95365.53;10393566;28;2170;-71
2023/03/17 08:38:10;;;;;;;;;;;;;;;7.10;100.00;95361.53;10395079;28;2007;-74
2023/03/17 08:43:17;;;;;;;;;;;;;;;7.40;100.00;95355.50;10400212;28;2140;-70
2023/03/17 08:48:21;;;;;;;;;;;;;;;7.64;100.00;95355.03;10401694;28;2141;-68
2023/03/17 08:53:24;;;;;;;;;;;;;;;7.95;100.00;95354.00;10397879;28;2382;-70
2023/03/17 08:58:26;;;;;;;;;;;;;;;8.30;100.00;95355.06;10402753;28;2294;-67
2023/03/17 09:03:29;;;;;;;;;;;;;;;8.57;98.37;95352.09;10401921;28;2296;-66
2023/03/17 09:08:33;;;;;;;;;;;;;;;9.06;94.15;95360.28;10405518;28;2215;-65
2023/03/17 09:13:46;;;;;;;;;;;;;;;9.12;94.15;95363.75;10400393;28;2123;-65
2023/03/17 09:18:49;;;;;;;;;;;;;;;9.14;92.63;95346.28;10404698;28;2250;-67
2023/03/17 09:23:51;;;;;;;;;;;;;;;9.66;90.02;95342.28;10411495;28;2324;-66
2023/03/17 09:28:54;;;;;;;;;;;;;;;9.58;89.59;95339.38;10405640;28;2140;-72
2023/03/17 09:33:57;;;;;;;;;;;;;;;9.86;88.82;95341.34;10405928;28;1919;-68
2023/03/17 09:38:59;;;;;;;;;;;;;;;10.21;88.76;95316.09;10406762;28;2199;-69
2023/03/17 09:44:02;;;;;;;;;;;;;;;10.44;85.82;95325.34;10403191;28;1966;-69
2023/03/17 09:49:06;;;;;;;;;;;;;;;10.72;86.25;95309.47;10399967;28;2329;-69
2023/03/17 09:54:09;;;;;;;;;;;;;;;10.92;83.83;95306.53;10399536;28;2040;-70
2023/03/17 09:59:11;;;;;;;;;;;;;;;11.24;79.70;95300.50;10397976;28;2167;-70
2023/03/17 10:04:15;;;;;;;;;;;;;;;11.10;76.58;95305.00;10405519;28;2015;-70
2023/03/17 10:09:21;;;;;;;;;;;;;;;11.29;72.52;95292.38;10399410;28;2128;-69
2023/03/17 10:14:28;;;;;;;;;;;;;;;11.56;68.51;95302.47;10396548;28;2210;-70
2023/03/17 10:19:40;;;;;;;;;;;;;;;11.48;70.43;95299.66;10397459;28;2231;-70
2023/03/17 10:24:43;;;;;;;;;;;;;;;12.25;66.46;95292.03;10393839;28;2175;-69
2023/03/17 10:29:46;;;;;;;;;;;;;;;12.45;62.64;95278.19;10398876;28;2172;-76
2023/03/17 10:34:50;;;;;;;;;;;;;;;12.49;63.20;95278.41;10412611;28;2142;-71
2023/03/17 10:39:53;;;;;;;;;;;;;;;12.44;65.52;95281.97;10396114;28;2327;-71
2023/03/17 10:44:56;;;;;;;;;;;;;;;12.58;63.46;95283.91;10397368;28;2142;-71
2023/03/17 10:49:58;;;;;;;;;;;;;;;12.87;61.28;95284.44;10399547;28;2241;-69
2023/03/17 10:55:00;;;;;;;;;;;;;;;13.25;60.56;95286.94;10403102;28;2266;-69
2023/03/17 11:00:03;;;;;;;;;;;;;;;13.28;58.52;95277.44;10404799;28;2117;-67
2023/03/17 11:05:08;;;;;;;;;;;;;;;13.48;59.17;95272.38;10438061;28;2037;-71
2023/03/17 11:10:10;;;;;;;;;;;;;;;13.50;58.48;95269.41;10407624;28;2014;-69
2023/03/17 11:15:15;;;;;;;;;;;;;;;13.81;54.71;95261.41;10404648;28;2148;-70
2023/03/17 11:20:21;;;;;;;;;;;;;;;13.95;54.27;95253.22;10415755;28;2766;-72
2023/03/17 11:25:24;;;;;;;;;;;;;;;14.08;55.48;95249.66;10437183;28;1959;-71
2023/03/17 11:30:27;;;;;;;;;;;;;;;13.80;59.34;95246.28;10404817;28;2233;-70
2023/03/17 11:35:31;;;;;;;;;;;;;;;14.18;61.65;95230.47;10405459;28;2223;-71
2023/03/17 11:40:44;;;;;;;;;;;;;;;14.33;62.59;95232.00;10409717;28;1993;-70
2023/03/17 11:45:47;;;;;;;;;;;;;;;14.69;60.21;95229.16;10401912;28;2076;-69
2023/03/17 11:51:00;;;;;;;;;;;;;;;14.77;59.42;95225.72;10405187;28;2158;-70
2023/03/17 11:56:03;;;;;;;;;;;;;;;14.45;61.79;95236.84;10404886;28;1982;-71
2023/03/17 12:01:07;;;;;;;;;;;;;;;14.17;63.50;95225.38;10403505;28;2251;-75
2023/03/17 12:06:10;;;;;;;;;;;;;;;14.26;63.18;95226.25;10409401;28;2160;-69
2023/03/17 12:11:13;;;;;;;;;;;;;;;14.16;63.84;95219.19;10405391;28;2201;-69
2023/03/17 12:16:16;;;;;;;;;;;;;;;14.53;63.75;95204.44;10399562;28;2206;-71
2023/03/17 12:21:20;;;;;;;;;;;;;;;14.86;64.09;95198.66;10399180;28;2124;-68
2023/03/17 12:26:23;;;;;;;;;;;;;;;14.78;63.67;95197.53;10403868;28;2268;-69
2023/03/17 12:31:25;;;;;;;;;;;;;;;14.71;64.33;95191.00;10398915;28;2616;-67
2023/03/17 12:36:27;;;;;;;;;;;;;;;15.26;63.70;95180.41;10396085;28;2205;-71
2023/03/17 12:41:32;;;;;;;;;;;;;;;15.36;62.49;95188.25;10433621;28;2120;-72
2023/03/17 12:46:44;;;;;;;;;;;;;;;15.57;63.01;95176.75;10398712;28;2240;-70
2023/03/17 12:51:48;;;;;;;;;;;;;;;15.75;64.44;95172.97;10400164;28;2202;-72
2023/03/17 12:56:53;;;;;;;;;;;;;;;15.64;61.38;95168.97;10400824;28;2192;-71
2023/03/17 13:01:57;;;;;;;;;;;;;;;15.62;63.71;95166.59;10400044;28;2037;-72
2023/03/17 13:07:00;;;;;;;;;;;;;;;15.79;64.73;95159.56;10401353;28;2179;-71
2023/03/17 13:12:02;;;;;;;;;;;;;;;15.85;65.65;95153.66;10398337;28;2287;-73
2023/03/17 13:17:05;;;;;;;;;;;;;;;15.75;64.90;95153.19;10403057;28;2171;-73
2023/03/17 13:22:08;;;;;;;;;;;;;;;15.80;67.86;95161.16;10430442;28;2253;-72
2023/03/17 13:27:11;;;;;;;;;;;;;;;15.61;67.68;95153.34;10397090;28;2161;-71
2023/03/17 13:32:14;;;;;;;;;;;;;;;15.74;69.14;95146.97;10397948;28;1968;-73
2023/03/17 13:37:18;;;;;;;;;;;;;;;15.34;70.97;95140.94;10396731;28;2172;-71
2023/03/17 13:42:21;;;;;;;;;;;;;;;15.58;71.21;95141.22;10397321;28;2166;-70
2023/03/17 13:47:24;;;;;;;;;;;;;;;15.68;70.32;95150.97;10396184;28;2211;-71
2023/03/17 13:52:27;;;;;;;;;;;;;;;15.98;68.89;95143.75;10398564;28;2215;-72
2023/03/17 13:57:30;;;;;;;;;;;;;;;16.11;68.76;95134.63;10397590;28;2204;-72
2023/03/17 14:02:35;;;;;;;;;;;;;;;16.43;67.12;95130.50;10397384;28;2233;-72
2023/03/17 14:07:37;;;;;;;;;;;;;;;16.47;66.79;95128.72;10398515;28;2030;-73
2023/03/17 14:12:49;;;;;;;;;;;;;;;16.23;67.46;95120.41;10397523;28;2065;-73
2023/03/17 14:17:52;;;;;;;;;;;;;;;16.06;69.57;95126.66;10394144;28;2197;-73
2023/03/17 14:22:55;;;;;;;;;;;;;;;16.07;71.19;95117.41;10392744;28;2149;-73
2023/03/17 14:27:59;;;;;;;;;;;;;;;16.02;70.95;95114.88;10406208;28;2153;-69
2023/03/17 14:33:02;;;;;;;;;;;;;;;15.89;72.25;95115.84;10435427;28;2226;-71
2023/03/17 14:38:05;;;;;;;;;;;;;;;15.75;72.75;95104.44;10408663;28;2285;-71
2023/03/17 14:43:08;;;;;;;;;;;;;;;15.74;73.14;95105.53;10406569;28;2202;-68
2023/03/17 14:48:10;;;;;;;;;;;;;;;15.55;74.72;95106.66;10409278;28;2187;-69
2023/03/17 14:53:13;;;;;;;;;;;;;;;15.45;76.91;95096.16;10402198;28;2285;-66
2023/03/17 14:58:15;;;;;;;;;;;;;;;15.42;76.50;95096.81;10396731;28;2148;-65
2023/03/17 15:03:18;;;;;;;;;;;;;;;15.29;77.37;95095.84;10408064;28;2187;-68
2023/03/17 15:08:25;;;;;;;;;;;;;;;15.34;77.33;95090.28;10405860;28;2481;-70
2023/03/17 15:13:29;;;;;;;;;;;;;;;15.19;80.45;95087.25;10404822;28;2177;-68
2023/03/17 15:18:32;;;;;;;;;;;;;;;15.24;81.23;95084.38;10407254;28;1998;-68
2023/03/17 15:23:35;;;;;;;;;;;;;;;15.00;83.35;95074.03;10397668;28;2203;-69
2023/03/17 15:28:38;;;;;;;;;;;;;;;14.91;85.35;95067.84;10383378;28;2259;-68
2023/03/17 15:33:41;;;;;;;;;;;;;;;15.10;84.43;95071.81;10385428;28;2263;-67
2023/03/17 15:38:44;;;;;;;;;;;;;;;15.06;85.24;95068.16;10397858;28;2156;-68
2023/03/17 15:43:47;;;;;;;;;;;;;;;15.09;85.10;95070.22;10421455;28;2145;-71
2023/03/17 15:48:59;;;;;;;;;;;;;;;15.12;83.10;95074.19;10406233;28;2183;-69
2023/03/17 15:54:02;;;;;;;;;;;;;;;14.56;86.73;95065.88;10402195;28;2194;-69
2023/03/17 15:59:05;;;;;;;;;;;;;;;14.43;88.78;95066.78;10400286;28;1970;-66
2023/03/17 16:04:09;;;;;;;;;;;;;;;14.18;90.40;95062.09;10406312;28;2036;-69
2023/03/17 16:09:12;;;;;;;;;;;;;;;13.98;90.60;95069.66;10408285;28;2142;-67
2023/03/17 16:14:15;;;;;;;;;;;;;;;13.74;92.96;95066.53;10394975;28;2218;-71
2023/03/17 16:19:18;;;;;;;;;;;;;;;13.63;94.52;95065.22;10401114;28;2147;-69
2023/03/17 16:24:22;;;;;;;;;;;;;;;13.45;93.61;95059.72;10405311;28;2269;-67
2023/03/17 16:29:25;;;;;;;;;;;;;;;13.35;92.81;95057.25;10402819;28;2090;-66
2023/03/17 16:34:28;;;;;;;;;;;;;;;13.16;93.73;95062.03;10408880;28;2207;-66
2023/03/17 16:39:41;;;;;;;;;;;;;;;13.01;95.09;95062.41;10407091;28;1913;-67
2023/03/17 16:44:43;;;;;;;;;;;;;;;12.82;96.50;95062.56;10404138;28;2243;-68
2023/03/17 16:49:46;;;;;;;;;;;;;;;12.67;97.81;95050.22;10397948;28;2184;-68
2023/03/17 16:54:49;;;;;;;;;;;;;;;12.43;100.00;95058.56;10397935;28;2215;-66
2023/03/17 16:59:52;;;;;;;;;;;;;;;12.31;100.00;95061.78;10400672;28;2205;-67
2023/03/17 17:04:54;;;;;;;;;;;;;;;12.17;100.00;95064.47;10400285;28;2197;-67
2023/03/17 17:09:57;;;;;;;;;;;;;;;11.96;100.00;95062.47;10402482;28;2122;-67
2023/03/17 17:14:59;;;;;;;;;;;;;;;11.69;100.00;95058.66;10400420;28;2101;-65
2023/03/17 17:20:03;;;;;;;;;;;;;;;11.61;100.00;95070.91;10402778;28;2220;-67
2023/03/17 17:25:08;;;;;;;;;;;;;;;11.44;100.00;95062.59;10397513;28;2172;-67
2023/03/17 17:30:11;;;;;;;;;;;;;;;11.27;100.00;95063.16;10397151;28;2184;-66
2023/03/17 17:35:23;;;;;;;;;;;;;;;11.19;100.00;95063.03;10394214;28;2120;-69
2023/03/17 17:40:36;;;;;;;;;;;;;;;11.10;100.00;95054.84;10400211;28;1978;-66
2023/03/17 17:45:40;;;;;;;;;;;;;;;11.04;100.00;95053.31;10392803;28;2461;-66
2023/03/17 17:50:43;;;;;;;;;;;;;;;10.94;100.00;95050.78;10398558;28;2115;-67
2023/03/17 17:55:46;;;;;;;;;;;;;;;10.84;100.00;95046.38;10417291;28;2061;-67
2023/03/17 18:00:49;;;;;;;;;;;;;;;10.72;100.00;95046.81;10397028;28;2129;-67
2023/03/17 18:05:55;;;;;;;;;;;;;;;10.61;100.00;95063.38;10408873;28;2781;-67
2023/03/17 18:10:58;;;;;;;;;;;;;;;10.38;100.00;95073.13;10409973;28;1962;-69
2023/03/17 18:16:02;;;;;;;;;;;;;;;10.25;100.00;95069.25;10408104;28;2227;-70
2023/03/17 18:21:08;;;;;;;;;;;;;;;10.18;100.00;95068.75;10406727;28;2198;-72
2023/03/17 18:26:10;;;;;;;;;;;;;;;10.04;100.00;95068.66;10411743;28;2173;-68
2023/03/17 18:31:14;;;;;;;;;;;;;;;9.86;100.00;95074.78;10409786;28;2016;-67
2023/03/17 18:36:16;;;;;;;;;;;;;;;9.61;100.00;95073.97;10408599;28;2348;-69
2023/03/17 18:41:19;;;;;;;;;;;;;;;9.46;100.00;95076.81;10409714;28;2353;-71
2023/03/17 18:46:24;;;;;;;;;;;;;;;9.37;100.00;95079.31;10409054;28;2182;-70
2023/03/17 18:51:27;;;;;;;;;;;;;;;9.32;100.00;95083.91;10412343;28;2097;-69
2023/03/17 18:56:31;;;;;;;;;;;;;;;9.23;100.00;95080.25;10412308;28;2137;-70
2023/03/17 19:01:33;;;;;;;;;;;;;;;9.05;100.00;95087.91;10408413;28;2188;-67
2023/03/17 19:06:38;;;;;;;;;;;;;;;8.89;100.00;95081.84;10415818;28;2261;-68
2023/03/17 19:11:40;;;;;;;;;;;;;;;8.81;100.00;95087.00;10409918;28;2189;-68
2023/03/17 19:16:43;;;;;;;;;;;;;;;8.68;100.00;95095.66;10416045;28;2292;-67
2023/03/17 19:21:47;;;;;;;;;;;;;;;8.65;100.00;95095.16;10419625;28;2186;-70
2023/03/17 19:26:49;;;;;;;;;;;;;;;8.58;100.00;95097.31;10410414;28;1950;-68
2023/03/17 19:31:52;;;;;;;;;;;;;;;8.59;100.00;95104.28;10414513;28;2333;-68
2023/03/17 19:36:54;;;;;;;;;;;;;;;8.45;100.00;95114.00;10416009;28;1910;-69
2023/03/17 19:41:58;;;;;;;;;;;;;;;8.27;100.00;95102.03;10414876;28;1902;-67
2023/03/17 19:47:03;;;;;;;;;;;;;;;8.29;100.00;95115.13;10427720;28;2263;-65
2023/03/17 19:52:08;;;;;;;;;;;;;;;8.10;100.00;95113.06;10411425;28;1960;-68
2023/03/17 19:57:12;;;;;;;;;;;;;;;7.99;100.00;95124.88;10411908;28;2153;-70
2023/03/17 20:02:15;;;;;;;;;;;;;;;7.98;100.00;95125.94;10394532;28;2183;-67
2023/03/17 20:07:17;;;;;;;;;;;;;;;7.90;100.00;95112.34;10404792;28;2184;-68
2023/03/17 20:12:20;;;;;;;;;;;;;;;7.87;100.00;95102.97;10410899;28;2219;-68
2023/03/17 20:17:23;;;;;;;;;;;;;;;7.83;100.00;95117.97;10406818;28;2196;-68
2023/03/17 20:22:26;;;;;;;;;;;;;;;7.74;100.00;95116.91;10398288;28;2213;-68
2023/03/17 20:27:30;;;;;;;;;;;;;;;7.69;100.00;95115.06;10406153;28;2522;-69
2023/03/17 20:32:33;;;;;;;;;;;;;;;7.72;100.00;95116.41;10400905;28;2246;-67
2023/03/17 20:37:36;;;;;;;;;;;;;;;7.64;100.00;95119.63;10401777;28;2189;-68
2023/03/17 20:42:39;;;;;;;;;;;;;;;7.41;100.00;95116.44;10437716;28;2428;-67
2023/03/17 20:47:47;;;;;;;;;;;;;;;7.36;100.00;95129.00;10405755;28;2198;-69
2023/03/17 20:52:51;;;;;;;;;;;;;;;7.33;100.00;95138.38;10403147;28;2116;-68
2023/03/17 20:57:53;;;;;;;;;;;;;;;7.25;100.00;95137.06;10409053;28;2178;-67
2023/03/17 21:03:06;;;;;;;;;;;;;;;7.09;100.00;95127.41;10410557;28;2222;-69
2023/03/17 21:08:08;;;;;;;;;;;;;;;7.15;100.00;95133.56;10412697;28;2193;-68
2023/03/17 21:13:11;;;;;;;;;;;;;;;7.05;100.00;95145.84;10409389;28;1975;-66
2023/03/17 21:18:13;;;;;;;;;;;;;;;6.91;100.00;95142.09;10408672;28;1983;-67
2023/03/17 21:23:16;;;;;;;;;;;;;;;6.95;100.00;95145.06;10408697;28;2172;-67
2023/03/17 21:28:20;;;;;;;;;;;;;;;6.87;100.00;95158.91;10411040;28;2195;-69
2023/03/17 21:33:23;;;;;;;;;;;;;;;6.83;100.00;95164.00;10411766;28;1985;-68
2023/03/17 21:38:26;;;;;;;;;;;;;;;6.90;100.00;95179.78;10407378;28;2129;-71
2023/03/17 21:43:33;;;;;;;;;;;;;;;6.75;100.00;95178.69;10407015;28;2193;-67
2023/03/17 21:48:45;;;;;;;;;;;;;;;6.63;100.00;95174.66;10411092;28;2125;-68
2023/03/17 21:53:58;;;;;;;;;;;;;;;6.47;100.00;95182.59;10405333;28;2200;-66
2023/03/17 21:59:01;;;;;;;;;;;;;;;6.31;100.00;95178.28;10399706;28;2317;-66
2023/03/17 22:04:03;;;;;;;;;;;;;;;6.22;100.00;95187.81;10397600;28;2224;-78
2023/03/17 22:09:06;;;;;;;;;;;;;;;6.13;100.00;95184.06;10402197;28;2342;-71
2023/03/17 22:14:19;;;;;;;;;;;;;;;6.02;100.00;95191.19;10402304;28;2261;-72
2023/03/17 22:19:22;;;;;;;;;;;;;;;5.90;100.00;95188.69;10402216;28;1958;-67
2023/03/17 22:24:25;;;;;;;;;;;;;;;6.00;100.00;95197.88;10398570;28;2150;-68
2023/03/17 22:29:28;;;;;;;;;;;;;;;5.79;100.00;95191.56;10398702;28;2292;-67
2023/03/17 22:34:30;;;;;;;;;;;;;;;5.68;100.00;95198.72;10400590;28;1983;-67
2023/03/17 22:39:34;;;;;;;;;;;;;;;5.78;100.00;95211.28;10401204;28;2184;-66
2023/03/17 22:44:37;;;;;;;;;;;;;;;5.84;100.00;95205.75;10402453;28;2129;-67
2023/03/17 22:49:39;;;;;;;;;;;;;;;5.78;100.00;95203.28;10405775;28;2215;-69
2023/03/17 22:54:43;;;;;;;;;;;;;;;5.69;100.00;95203.78;10406240;28;2193;-67
2023/03/17 22:59:45;;;;;;;;;;;;;;;5.62;100.00;95215.75;10403063;28;2208;-67
2023/03/17 23:04:49;;;;;;;;;;;;;;;5.61;100.00;95232.81;10405026;28;1990;-67
2023/03/17 23:09:51;;;;;;;;;;;;;;;5.54;100.00;95226.88;10415314;28;2248;-67
2023/03/17 23:14:56;;;;;;;;;;;;;;;5.60;100.00;95233.84;10397011;28;2010;-67
2023/03/17 23:19:58;;;;;;;;;;;;;;;5.62;100.00;95239.72;10407441;28;2253;-67
2023/03/17 23:25:02;;;;;;;;;;;;;;;5.57;100.00;95251.16;10404576;28;1999;-68
2023/03/17 23:30:05;;;;;;;;;;;;;;;5.52;100.00;95239.63;10398817;28;2068;-66
2023/03/17 23:35:08;;;;;;;;;;;;;;;5.43;100.00;95249.97;10406755;28;1993;-69
2023/03/17 23:40:12;;;;;;;;;;;;;;;5.39;100.00;95247.00;10404119;28;2225;-67
2023/03/17 23:45:25;;;;;;;;;;;;;;;5.31;100.00;95255.47;10401646;28;2139;-67
2023/03/17 23:50:28;;;;;;;;;;;;;;;5.23;100.00;95253.28;10404991;28;2198;-68
2023/03/17 23:55:34;;;;;;;;;;;;;;;5.14;100.00;95252.91;10401230;28;1979;-67
